Time;durP1;ratioP1;P1;durP2;ratioP2;P2;SDS_P1;SDS_P2;PMS_P1;PMS_P2;Temp;Humidity;BMP_temperature;BMP_pressure;BME280_temperature;BME280_humidity;BME280_pressure;Samples;Min_cycle;Max_cycle;Signal;HPM_P1;HPM_P2
2021/09/19 00:02:13;;;;;;;;;;;14.50;99.90;;;;;;1865942;77;20206;-79
2021/09/19 00:04:39;;;;;;;;;;;14.40;99.90;;;;;;1865856;77;20458;-79
2021/09/19 00:07:06;;;;;;;;;;;14.30;99.90;;;;;;1865728;77;20121;-80
2021/09/19 00:09:33;;;;;;;;;;;14.30;99.90;;;;;;1865416;77;20573;-81
2021/09/19 00:12:00;;;;;;;;;;;14.30;99.90;;;;;;1865655;77;20441;-80
2021/09/19 00:14:28;;;;;;;;;;;14.30;99.90;;;;;;1866028;76;20230;-80
2021/09/19 00:16:55;;;;;;;;;;;14.30;99.90;;;;;;1865759;77;20215;-81
2021/09/19 00:19:22;;;;;;;;;;;14.30;99.90;;;;;;1865858;77;20184;-80
2021/09/19 00:21:49;;;;;;;;;;;14.30;99.90;;;;;;1852020;77;20134;-80
2021/09/19 00:24:16;;;;;;;;;;;14.30;99.90;;;;;;1835138;78;20166;-78
2021/09/19 00:26:43;;;;;;;;;;;14.30;99.90;;;;;;1852685;77;20190;-79
2021/09/19 00:29:10;;;;;;;;;;;14.20;99.90;;;;;;1860590;77;20124;-78
2021/09/19 00:31:37;;;;;;;;;;;14.30;99.90;;;;;;1863066;76;20132;-78
2021/09/19 00:34:04;;;;;;;;;;;14.30;99.90;;;;;;1865277;77;20204;-79
2021/09/19 00:36:30;;;;;;;;;;;14.30;99.90;;;;;;1868260;76;20198;-79
2021/09/19 00:38:57;;;;;;;;;;;14.40;99.90;;;;;;1866535;76;20112;-79
2021/09/19 00:41:24;;;;;;;;;;;14.40;99.90;;;;;;1837866;77;20195;-78
2021/09/19 00:43:51;;;;;;;;;;;14.40;99.90;;;;;;1849092;76;20167;-78
2021/09/19 00:46:18;;;;;;;;;;;14.40;99.90;;;;;;1868352;76;20152;-78
2021/09/19 00:48:44;;;;;;;;;;;14.30;99.90;;;;;;1847876;76;20207;-78
2021/09/19 00:51:11;;;;;;;;;;;14.30;99.90;;;;;;1865536;77;20136;-78
2021/09/19 00:53:39;;;;;;;;;;;14.30;99.90;;;;;;1865894;77;20211;-78
2021/09/19 00:56:06;;;;;;;;;;;14.30;99.90;;;;;;1861706;77;20162;-78
2021/09/19 00:58:33;;;;;;;;;;;14.30;99.90;;;;;;1861662;76;20505;-78
2021/09/19 01:01:01;;;;;;;;;;;14.40;99.90;;;;;;1869585;76;20257;-78
2021/09/19 01:03:28;;;;;;;;;;;14.30;99.90;;;;;;1860809;76;20375;-79
2021/09/19 01:05:55;;;;;;;;;;;14.30;99.90;;;;;;1857747;76;20175;-78
2021/09/19 01:08:22;;;;;;;;;;;14.30;99.90;;;;;;1847855;76;20179;-77
2021/09/19 01:10:48;;;;;;;;;;;14.20;99.90;;;;;;1826318;77;20298;-78
2021/09/19 01:13:15;;;;;;;;;;;14.30;99.90;;;;;;1856657;76;20462;-78
2021/09/19 01:15:42;;;;;;;;;;;14.20;99.90;;;;;;1842013;76;20848;-78
2021/09/19 01:18:10;;;;;;;;;;;14.30;99.90;;;;;;1861895;76;20176;-78
2021/09/19 01:20:36;;;;;;;;;;;14.30;99.90;;;;;;1855595;77;20269;-78
2021/09/19 01:23:05;;;;;;;;;;;14.30;99.90;;;;;;1875572;76;20120;-77
2021/09/19 01:25:33;;;;;;;;;;;14.40;99.90;;;;;;1863610;77;20164;-77
2021/09/19 01:28:00;;;;;;;;;;;14.30;99.90;;;;;;1864590;77;20090;-77
2021/09/19 01:30:27;;;;;;;;;;;14.30;99.90;;;;;;1870207;75;20174;-77
2021/09/19 01:32:53;;;;;;;;;;;14.20;99.90;;;;;;1850520;76;20239;-76
2021/09/19 01:35:20;;;;;;;;;;;14.20;99.90;;;;;;1863411;77;20466;-77
2021/09/19 01:37:47;;;;;;;;;;;14.20;99.90;;;;;;1865585;76;20145;-78
2021/09/19 01:40:14;;;;;;;;;;;14.10;99.90;;;;;;1868327;77;20160;-78
2021/09/19 01:42:41;;;;;;;;;;;14.10;99.90;;;;;;1867231;77;20180;-79
2021/09/19 01:45:08;;;;;;;;;;;14.10;99.90;;;;;;1867568;76;20190;-76
2021/09/19 01:47:36;;;;;;;;;;;14.10;99.90;;;;;;1862093;77;20175;-76
2021/09/19 01:50:03;;;;;;;;;;;14.10;99.90;;;;;;1855460;77;20115;-77
2021/09/19 01:52:31;;;;;;;;;;;14.10;99.90;;;;;;1852963;77;20224;-77
2021/09/19 01:54:59;;;;;;;;;;;14.00;99.90;;;;;;1854272;76;20231;-79
2021/09/19 01:57:25;;;;;;;;;;;14.00;99.90;;;;;;1846604;77;20172;-79
2021/09/19 01:59:53;;;;;;;;;;;14.10;99.90;;;;;;1855032;76;20213;-78
2021/09/19 02:02:21;;;;;;;;;;;14.10;99.90;;;;;;1849533;77;20165;-78
2021/09/19 02:04:49;;;;;;;;;;;14.10;99.90;;;;;;1852323;77;20494;-77
2021/09/19 02:07:16;;;;;;;;;;;14.10;99.90;;;;;;1848624;77;20508;-77
2021/09/19 02:09:43;;;;;;;;;;;14.10;99.90;;;;;;1861175;76;20270;-78
2021/09/19 02:12:13;;;;;;;;;;;14.10;99.90;;;;;;1842379;77;20171;-78
2021/09/19 02:14:38;;;;;;;;;;;14.10;99.90;;;;;;1828427;77;20401;-77
2021/09/19 02:17:05;;;;;;;;;;;14.10;99.90;;;;;;1855616;77;20155;-78
2021/09/19 02:19:32;;;;;;;;;;;14.10;99.90;;;;;;1854888;76;20491;-78
2021/09/19 02:21:59;;;;;;;;;;;14.00;99.90;;;;;;1850790;77;20186;-78
2021/09/19 02:24:26;;;;;;;;;;;14.10;99.90;;;;;;1846498;77;20196;-78
2021/09/19 02:26:52;;;;;;;;;;;14.00;99.90;;;;;;1854696;77;20504;-79
2021/09/19 02:29:19;;;;;;;;;;;14.00;99.90;;;;;;1860367;77;20127;-79
2021/09/19 02:31:46;;;;;;;;;;;14.00;99.90;;;;;;1861237;77;20481;-79
2021/09/19 02:34:13;;;;;;;;;;;14.10;99.90;;;;;;1857469;77;20262;-78
2021/09/19 02:36:40;;;;;;;;;;;14.10;99.90;;;;;;1856704;77;20387;-78
2021/09/19 02:39:09;;;;;;;;;;;14.00;99.90;;;;;;1863994;76;20496;-78
2021/09/19 02:41:37;;;;;;;;;;;14.10;99.90;;;;;;1865083;76;20206;-78
2021/09/19 02:44:03;;;;;;;;;;;14.10;99.90;;;;;;1890044;76;20161;-78
2021/09/19 02:46:30;;;;;;;;;;;14.00;99.90;;;;;;1891858;76;20157;-78
2021/09/19 02:48:57;;;;;;;;;;;14.00;99.90;;;;;;1865226;75;20234;-78
2021/09/19 02:51:24;;;;;;;;;;;14.00;99.90;;;;;;1859873;77;20117;-79
2021/09/19 02:53:51;;;;;;;;;;;14.00;99.90;;;;;;1864562;76;20464;-77
2021/09/19 02:56:18;;;;;;;;;;;14.00;99.90;;;;;;1862604;76;20224;-77
2021/09/19 02:58:44;;;;;;;;;;;14.10;99.90;;;;;;1865354;77;20826;-78
2021/09/19 03:01:11;;;;;;;;;;;14.10;99.90;;;;;;1862660;77;20188;-77
2021/09/19 03:03:38;;;;;;;;;;;14.00;99.90;;;;;;1869203;76;20199;-78
2021/09/19 03:06:05;;;;;;;;;;;14.00;99.90;;;;;;1861888;77;20167;-78
2021/09/19 03:08:32;;;;;;;;;;;14.00;99.90;;;;;;1849341;77;20185;-77
2021/09/19 03:10:59;;;;;;;;;;;14.00;99.90;;;;;;1860364;77;20422;-77
2021/09/19 03:13:25;;;;;;;;;;;13.90;99.90;;;;;;1861353;77;20164;-78
2021/09/19 03:15:52;;;;;;;;;;;13.90;99.90;;;;;;1865110;76;20112;-79
2021/09/19 03:18:19;;;;;;;;;;;13.90;99.90;;;;;;1854113;76;20568;-79
2021/09/19 03:20:46;;;;;;;;;;;13.80;99.90;;;;;;1816715;79;20244;-78
2021/09/19 03:23:14;;;;;;;;;;;13.80;99.90;;;;;;1850719;77;20159;-78
2021/09/19 03:25:41;;;;;;;;;;;13.80;99.90;;;;;;1868313;76;20218;-77
2021/09/19 03:28:08;;;;;;;;;;;13.80;99.90;;;;;;1892335;76;20491;-78
2021/09/19 03:30:35;;;;;;;;;;;13.80;99.90;;;;;;1882686;76;20113;-79
2021/09/19 03:33:01;;;;;;;;;;;13.80;99.90;;;;;;1848036;76;20199;-78
2021/09/19 03:35:28;;;;;;;;;;;13.90;99.90;;;;;;1876449;76;20191;-78
2021/09/19 03:37:55;;;;;;;;;;;13.90;99.90;;;;;;1849777;76;20229;-78
2021/09/19 03:40:22;;;;;;;;;;;13.80;99.90;;;;;;1858091;76;20472;-78
2021/09/19 03:42:51;;;;;;;;;;;13.80;99.90;;;;;;1892256;75;20122;-78
2021/09/19 03:45:17;;;;;;;;;;;13.80;99.90;;;;;;1869921;75;20206;-78
2021/09/19 03:47:44;;;;;;;;;;;13.80;99.90;;;;;;1858950;76;20164;-78
2021/09/19 03:50:13;;;;;;;;;;;13.80;99.90;;;;;;1862619;77;20128;-79
2021/09/19 03:52:40;;;;;;;;;;;13.80;99.90;;;;;;1865601;77;20415;-79
2021/09/19 03:55:07;;;;;;;;;;;13.80;99.90;;;;;;1870855;76;20461;-80
2021/09/19 03:57:34;;;;;;;;;;;13.80;99.90;;;;;;1847709;76;20233;-80
2021/09/19 04:00:02;;;;;;;;;;;13.80;99.90;;;;;;1834778;76;20208;-78
2021/09/19 04:02:29;;;;;;;;;;;13.80;99.90;;;;;;1845637;77;20411;-78
2021/09/19 04:04:56;;;;;;;;;;;13.70;99.90;;;;;;1857170;77;20230;-78
2021/09/19 04:07:23;;;;;;;;;;;13.80;99.90;;;;;;1853276;77;20198;-78
2021/09/19 04:09:50;;;;;;;;;;;13.70;99.90;;;;;;1859857;77;20120;-78
2021/09/19 04:12:16;;;;;;;;;;;13.70;99.90;;;;;;1864144;76;20190;-78
2021/09/19 04:14:43;;;;;;;;;;;13.70;99.90;;;;;;1854761;77;20172;-78
2021/09/19 04:17:10;;;;;;;;;;;13.80;99.90;;;;;;1858267;77;20116;-78
2021/09/19 04:19:37;;;;;;;;;;;13.80;99.90;;;;;;1862401;76;20215;-77
2021/09/19 04:22:04;;;;;;;;;;;13.80;99.90;;;;;;1865966;76;20164;-77
2021/09/19 04:24:30;;;;;;;;;;;13.70;99.90;;;;;;1858831;76;20183;-78
2021/09/19 04:26:57;;;;;;;;;;;13.70;99.90;;;;;;1845556;77;20130;-77
2021/09/19 04:29:24;;;;;;;;;;;13.70;99.90;;;;;;1852338;77;20197;-75
2021/09/19 04:31:51;;;;;;;;;;;13.70;99.90;;;;;;1856698;76;20287;-78
2021/09/19 04:34:18;;;;;;;;;;;13.60;99.90;;;;;;1850041;77;20207;-78
2021/09/19 04:36:45;;;;;;;;;;;13.60;99.90;;;;;;1854807;74;20149;-69
2021/09/19 04:39:11;;;;;;;;;;;13.60;99.90;;;;;;1855088;77;20189;-72
2021/09/19 04:41:38;;;;;;;;;;;13.60;99.90;;;;;;1847353;78;20361;-72
2021/09/19 04:44:05;;;;;;;;;;;13.70;99.90;;;;;;1847717;78;20836;-71
2021/09/19 04:46:32;;;;;;;;;;;13.70;99.90;;;;;;1846163;78;20177;-72
2021/09/19 04:48:59;;;;;;;;;;;13.60;99.90;;;;;;1845994;78;20428;-72
2021/09/19 04:51:25;;;;;;;;;;;13.60;99.90;;;;;;1845965;77;20242;-72
2021/09/19 04:53:52;;;;;;;;;;;13.60;99.90;;;;;;1845623;78;20487;-72
2021/09/19 04:56:19;;;;;;;;;;;13.50;99.90;;;;;;1845966;78;20205;-72
2021/09/19 04:58:46;;;;;;;;;;;13.50;99.90;;;;;;1845950;78;20193;-73
2021/09/19 05:01:13;;;;;;;;;;;13.50;99.90;;;;;;1850612;76;20126;-72
2021/09/19 05:03:40;;;;;;;;;;;13.50;99.90;;;;;;1875907;76;20196;-72
2021/09/19 05:06:07;;;;;;;;;;;13.50;99.90;;;;;;1875902;76;20134;-72
2021/09/19 05:08:34;;;;;;;;;;;13.50;99.90;;;;;;1875963;76;20200;-72
2021/09/19 05:11:01;;;;;;;;;;;13.50;99.90;;;;;;1875645;76;20212;-72
2021/09/19 05:13:28;;;;;;;;;;;13.50;99.90;;;;;;1875983;75;20208;-72
2021/09/19 05:15:55;;;;;;;;;;;13.40;99.90;;;;;;1858230;76;20278;-70
2021/09/19 05:18:22;;;;;;;;;;;13.40;99.90;;;;;;1841247;76;20225;-71
2021/09/19 05:20:49;;;;;;;;;;;13.40;99.90;;;;;;1845567;76;20119;-69
2021/09/19 05:23:16;;;;;;;;;;;13.40;99.90;;;;;;1845727;77;20642;-69
2021/09/19 05:25:43;;;;;;;;;;;13.40;99.90;;;;;;1850018;76;20218;-69
2021/09/19 05:28:09;;;;;;;;;;;13.50;99.90;;;;;;1863567;76;20162;-72
2021/09/19 05:30:36;;;;;;;;;;;13.50;99.90;;;;;;1865304;76;20228;-70
2021/09/19 05:33:03;;;;;;;;;;;13.40;99.90;;;;;;1845747;78;20220;-70
2021/09/19 05:35:30;;;;;;;;;;;13.40;99.90;;;;;;1839228;78;20154;-71
2021/09/19 05:37:57;;;;;;;;;;;13.40;99.90;;;;;;1844364;77;20273;-71
2021/09/19 05:40:23;;;;;;;;;;;13.40;99.90;;;;;;1871417;76;20197;-70
2021/09/19 05:42:50;;;;;;;;;;;13.40;99.90;;;;;;1852515;76;20200;-71
2021/09/19 05:45:17;;;;;;;;;;;13.40;99.90;;;;;;1851893;76;20196;-71
2021/09/19 05:47:44;;;;;;;;;;;13.40;99.90;;;;;;1853075;76;20393;-71
2021/09/19 05:50:11;;;;;;;;;;;13.40;99.90;;;;;;1845007;77;20160;-71
2021/09/19 05:52:37;;;;;;;;;;;13.40;99.90;;;;;;1845635;78;20219;-72
2021/09/19 05:55:04;;;;;;;;;;;13.40;99.90;;;;;;1830214;77;20227;-71
2021/09/19 05:57:31;;;;;;;;;;;13.50;99.90;;;;;;1845650;78;20205;-71
2021/09/19 05:59:59;;;;;;;;;;;13.50;99.90;;;;;;1820494;77;20124;-71
2021/09/19 06:02:26;;;;;;;;;;;13.50;99.90;;;;;;1845603;78;20193;-71
2021/09/19 06:04:52;;;;;;;;;;;13.60;99.90;;;;;;1844232;76;20225;-71
2021/09/19 06:07:19;;;;;;;;;;;13.60;99.90;;;;;;1845758;78;20308;-71
2021/09/19 06:09:46;;;;;;;;;;;13.60;99.90;;;;;;1844792;77;20209;-71
2021/09/19 06:12:13;;;;;;;;;;;13.60;99.90;;;;;;1844879;76;20135;-71
2021/09/19 06:14:40;;;;;;;;;;;13.60;99.90;;;;;;1851264;77;20200;-71
2021/09/19 06:17:06;;;;;;;;;;;13.60;99.90;;;;;;1857236;76;20211;-71
2021/09/19 06:19:33;;;;;;;;;;;13.70;99.90;;;;;;1834354;76;20168;-71
2021/09/19 06:22:01;;;;;;;;;;;13.70;99.90;;;;;;1840465;77;20205;-70
2021/09/19 06:24:29;;;;;;;;;;;13.70;99.90;;;;;;1843191;76;20200;-71
2021/09/19 06:26:56;;;;;;;;;;;13.70;99.90;;;;;;1846223;76;20225;-71
2021/09/19 06:29:23;;;;;;;;;;;13.60;99.90;;;;;;1845733;78;20115;-70
2021/09/19 06:31:50;;;;;;;;;;;13.70;99.90;;;;;;1847244;77;20212;-70
2021/09/19 06:34:17;;;;;;;;;;;13.70;99.90;;;;;;1847937;76;20420;-70
2021/09/19 06:36:43;;;;;;;;;;;13.70;99.90;;;;;;1844688;77;20130;-70
2021/09/19 06:39:10;;;;;;;;;;;13.70;99.90;;;;;;1830357;77;20484;-70
2021/09/19 06:41:37;;;;;;;;;;;13.80;99.90;;;;;;1835530;77;20193;-70
2021/09/19 06:44:04;;;;;;;;;;;13.80;99.90;;;;;;1815604;79;20336;-71
2021/09/19 06:46:31;;;;;;;;;;;13.90;99.90;;;;;;1815665;79;20208;-71
2021/09/19 06:48:58;;;;;;;;;;;13.90;99.90;;;;;;1832360;76;20201;-71
2021/09/19 06:51:25;;;;;;;;;;;13.90;99.90;;;;;;1845694;78;20508;-71
2021/09/19 06:53:52;;;;;;;;;;;13.90;99.90;;;;;;1846064;78;20150;-71
2021/09/19 06:56:21;;;;;;;;;;;13.80;99.90;;;;;;1845796;78;20193;-71
2021/09/19 06:58:50;;;;;;;;;;;13.80;99.90;;;;;;1845965;78;20438;-72
2021/09/19 07:01:21;;;;;;;;;;;13.90;99.90;;;;;;1845681;78;20279;-72
2021/09/19 07:03:46;;;;;;;;;;;13.90;99.90;;;;;;1845450;78;20174;-72
2021/09/19 07:06:13;;;;;;;;;;;14.00;99.90;;;;;;1868731;76;20293;-71
2021/09/19 07:08:39;;;;;;;;;;;14.10;99.90;;;;;;1875926;76;20196;-71
2021/09/19 07:11:06;;;;;;;;;;;14.10;99.90;;;;;;1875891;76;20197;-72
2021/09/19 07:13:33;;;;;;;;;;;14.10;99.90;;;;;;1875644;76;20200;-71
2021/09/19 07:16:00;;;;;;;;;;;14.10;99.90;;;;;;1875755;76;20157;-71
2021/09/19 07:18:27;;;;;;;;;;;14.10;99.90;;;;;;1875815;76;20184;-71
2021/09/19 07:20:54;;;;;;;;;;;14.00;99.90;;;;;;1847685;76;20502;-72
2021/09/19 07:23:22;;;;;;;;;;;14.00;99.90;;;;;;1845996;78;20174;-72
2021/09/19 07:25:49;;;;;;;;;;;14.20;99.90;;;;;;1844626;78;20158;-71
2021/09/19 07:28:16;;;;;;;;;;;14.20;99.90;;;;;;1846059;77;20130;-72
2021/09/19 07:30:43;;;;;;;;;;;14.30;99.90;;;;;;1839507;78;20173;-71
2021/09/19 07:33:10;;;;;;;;;;;14.20;99.90;;;;;;1846065;77;20181;-72
2021/09/19 07:35:38;;;;;;;;;;;14.30;99.90;;;;;;1845892;76;20196;-71
2021/09/19 07:38:05;;;;;;;;;;;14.30;99.90;;;;;;1848582;76;20368;-71
2021/09/19 07:40:32;;;;;;;;;;;14.30;99.90;;;;;;1872191;76;20241;-71
2021/09/19 07:43:00;;;;;;;;;;;14.40;99.90;;;;;;1845838;78;20431;-71
2021/09/19 07:45:27;;;;;;;;;;;14.40;99.90;;;;;;1845859;78;20189;-71
2021/09/19 07:47:54;;;;;;;;;;;14.30;99.90;;;;;;1857748;76;20179;-71
2021/09/19 07:50:21;;;;;;;;;;;14.40;99.90;;;;;;1843547;76;20141;-71
2021/09/19 07:52:48;;;;;;;;;;;14.40;99.90;;;;;;1875829;76;20208;-71
2021/09/19 07:55:15;;;;;;;;;;;14.40;99.90;;;;;;1875726;76;20244;-71
2021/09/19 07:57:42;;;;;;;;;;;14.40;99.90;;;;;;1875794;76;20281;-71
2021/09/19 08:00:10;;;;;;;;;;;14.40;99.90;;;;;;1875723;76;20258;-71
2021/09/19 08:02:36;;;;;;;;;;;14.40;99.90;;;;;;1875781;76;20204;-71
2021/09/19 08:05:03;;;;;;;;;;;14.60;99.90;;;;;;1860984;76;20127;-71
2021/09/19 08:07:50;;;;;;;;;;;14.60;99.90;;;;;;1846023;78;20166;-71
2021/09/19 08:10:16;;;;;;;;;;;14.60;99.90;;;;;;1847865;77;20448;-71
2021/09/19 08:12:46;;;;;;;;;;;14.70;99.90;;;;;;1853718;76;20207;-71
2021/09/19 08:15:12;;;;;;;;;;;14.70;99.90;;;;;;1847308;77;20349;-71
2021/09/19 08:17:39;;;;;;;;;;;14.70;99.90;;;;;;1846027;78;20186;-71
2021/09/19 08:20:06;;;;;;;;;;;14.70;99.90;;;;;;1845636;78;20135;-71
2021/09/19 08:22:33;;;;;;;;;;;14.70;99.90;;;;;;1845724;78;20178;-71
2021/09/19 08:25:04;;;;;;;;;;;14.70;99.90;;;;;;1843404;78;20134;-71
2021/09/19 08:27:30;;;;;;;;;;;14.70;99.90;;;;;;1815289;79;20496;-71
2021/09/19 08:29:57;;;;;;;;;;;14.70;99.90;;;;;;1833598;78;20181;-71
2021/09/19 08:32:24;;;;;;;;;;;14.70;99.90;;;;;;1839553;78;20120;-71
2021/09/19 08:34:51;;;;;;;;;;;14.70;99.90;;;;;;1839421;78;20183;-71
2021/09/19 08:37:18;;;;;;;;;;;14.70;99.90;;;;;;1839376;78;20224;-71
2021/09/19 08:39:45;;;;;;;;;;;14.70;99.90;;;;;;1839709;78;20224;-71
2021/09/19 08:42:11;;;;;;;;;;;14.70;99.90;;;;;;1839299;78;20181;-71
2021/09/19 08:44:38;;;;;;;;;;;14.80;99.90;;;;;;1844947;78;20166;-71
2021/09/19 08:47:05;;;;;;;;;;;14.80;99.90;;;;;;1845551;78;20182;-71
2021/09/19 08:49:32;;;;;;;;;;;14.80;99.90;;;;;;1845987;78;20146;-71
2021/09/19 08:51:59;;;;;;;;;;;14.90;99.90;;;;;;1845817;78;20336;-71
2021/09/19 08:54:26;;;;;;;;;;;14.80;99.90;;;;;;1845919;78;20186;-70
2021/09/19 08:56:53;;;;;;;;;;;14.90;99.90;;;;;;1845390;77;20225;-71
2021/09/19 08:59:19;;;;;;;;;;;14.90;99.90;;;;;;1835530;78;20193;-71
2021/09/19 09:02:02;;;;;;;;;;;14.90;99.90;;;;;;1845926;78;20157;-71
2021/09/19 09:04:29;;;;;;;;;;;15.00;99.90;;;;;;1845898;78;20259;-71
2021/09/19 09:06:56;;;;;;;;;;;15.00;99.90;;;;;;1845457;78;20452;-71
2021/09/19 09:09:23;;;;;;;;;;;15.00;99.90;;;;;;1845684;77;20483;-70
2021/09/19 09:12:00;;;;;;;;;;;15.10;99.90;;;;;;1840296;78;20212;-71
2021/09/19 09:14:27;;;;;;;;;;;15.10;99.90;;;;;;1839388;78;20115;-71
2021/09/19 09:16:56;;;;;;;;;;;15.10;99.90;;;;;;1839685;78;20464;-71
2021/09/19 09:19:24;;;;;;;;;;;15.10;99.90;;;;;;1842923;77;20182;-71
2021/09/19 09:21:52;;;;;;;;;;;15.10;99.90;;;;;;1843638;78;20118;-71
2021/09/19 09:24:19;;;;;;;;;;;15.10;99.90;;;;;;1844008;77;20123;-71
2021/09/19 09:26:46;;;;;;;;;;;15.20;99.90;;;;;;1845707;78;20170;-71
2021/09/19 09:29:14;;;;;;;;;;;15.20;99.90;;;;;;1845951;77;20170;-71
2021/09/19 09:31:45;;;;;;;;;;;15.30;99.90;;;;;;1845800;78;20185;-71
2021/09/19 09:34:13;;;;;;;;;;;15.30;99.90;;;;;;1845827;78;20190;-71
2021/09/19 09:36:45;;;;;;;;;;;15.30;99.90;;;;;;1844956;78;20263;-71
2021/09/19 09:39:13;;;;;;;;;;;15.40;99.90;;;;;;1841963;78;20617;-72
2021/09/19 09:41:40;;;;;;;;;;;15.30;99.90;;;;;;1843696;78;20128;-72
2021/09/19 09:44:26;;;;;;;;;;;15.40;99.90;;;;;;1845829;78;20153;-72
2021/09/19 09:46:52;;;;;;;;;;;15.40;99.90;;;;;;1842002;78;20459;-72
2021/09/19 09:49:24;;;;;;;;;;;15.40;99.90;;;;;;1840194;76;20132;-72
2021/09/19 09:51:50;;;;;;;;;;;15.40;99.90;;;;;;1816552;77;20161;-72
2021/09/19 09:54:17;;;;;;;;;;;15.50;99.90;;;;;;1815820;79;20196;-71
2021/09/19 09:56:46;;;;;;;;;;;15.50;99.90;;;;;;1835563;78;20111;-72
2021/09/19 09:59:15;;;;;;;;;;;15.50;99.90;;;;;;1845530;78;20186;-72
2021/09/19 10:01:42;;;;;;;;;;;15.60;99.90;;;;;;1846028;78;20126;-72
2021/09/19 10:04:09;;;;;;;;;;;15.50;99.90;;;;;;1845776;78;20213;-72
2021/09/19 10:06:36;;;;;;;;;;;15.60;99.90;;;;;;1845871;78;20169;-72
2021/09/19 10:09:03;;;;;;;;;;;15.60;99.90;;;;;;1845838;78;20240;-71
2021/09/19 10:11:30;;;;;;;;;;;15.60;99.90;;;;;;1845938;78;20119;-72
2021/09/19 10:13:57;;;;;;;;;;;15.70;99.90;;;;;;1845928;78;20115;-71
2021/09/19 10:16:24;;;;;;;;;;;15.70;99.90;;;;;;1845753;78;20165;-72
2021/09/19 10:18:51;;;;;;;;;;;15.70;99.90;;;;;;1842388;78;20153;-72
2021/09/19 10:21:19;;;;;;;;;;;15.70;99.90;;;;;;1837094;78;20166;-72
2021/09/19 10:23:48;;;;;;;;;;;15.70;99.90;;;;;;1837107;78;20204;-72
2021/09/19 10:26:18;;;;;;;;;;;15.80;99.90;;;;;;1836938;78;20182;-71
2021/09/19 10:28:45;;;;;;;;;;;15.70;99.90;;;;;;1836328;78;20115;-72
2021/09/19 10:31:15;;;;;;;;;;;15.80;99.90;;;;;;1832376;78;20192;-72
2021/09/19 10:33:45;;;;;;;;;;;15.90;99.90;;;;;;1821376;78;20401;-72
2021/09/19 10:36:22;;;;;;;;;;;15.90;99.90;;;;;;1815652;79;20195;-71
2021/09/19 10:38:49;;;;;;;;;;;16.00;99.90;;;;;;1814483;79;20122;-72
2021/09/19 10:41:17;;;;;;;;;;;16.00;99.90;;;;;;1815587;79;20453;-72
2021/09/19 10:44:03;;;;;;;;;;;16.00;99.90;;;;;;1815779;79;20176;-71
2021/09/19 10:46:38;;;;;;;;;;;16.00;99.90;;;;;;1826752;78;20240;-72
2021/09/19 10:49:21;;;;;;;;;;;16.10;99.90;;;;;;1839574;78;20126;-71
2021/09/19 10:52:01;;;;;;;;;;;16.10;99.90;;;;;;1839178;77;20169;-71
2021/09/19 10:54:44;;;;;;;;;;;16.10;99.90;;;;;;1838394;78;20131;-71
2021/09/19 10:57:16;;;;;;;;;;;16.00;99.90;;;;;;1839334;78;20116;-72
2021/09/19 11:00:01;;;;;;;;;;;16.00;99.90;;;;;;1839436;78;20178;-72
2021/09/19 11:02:29;;;;;;;;;;;16.00;99.90;;;;;;1815670;79;20235;-72
2021/09/19 11:05:13;;;;;;;;;;;16.00;99.90;;;;;;1815234;79;20477;-72
2021/09/19 11:07:42;;;;;;;;;;;16.00;99.90;;;;;;1794356;80;20134;-71
2021/09/19 11:10:10;;;;;;;;;;;16.00;99.90;;;;;;1808500;79;20172;-71
2021/09/19 11:12:50;;;;;;;;;;;16.00;99.90;;;;;;1815801;79;20172;-71
2021/09/19 11:15:17;;;;;;;;;;;15.90;99.90;;;;;;1830213;78;20467;-71
2021/09/19 11:17:49;;;;;;;;;;;15.90;99.90;;;;;;1838864;78;20170;-72
2021/09/19 11:20:17;;;;;;;;;;;15.90;99.90;;;;;;1839500;78;20150;-71
2021/09/19 11:22:57;;;;;;;;;;;15.90;99.90;;;;;;1839973;78;20120;-71
2021/09/19 11:25:23;;;;;;;;;;;15.90;99.90;;;;;;1839237;78;20283;-72
2021/09/19 11:27:51;;;;;;;;;;;15.90;99.90;;;;;;1839311;78;20154;-71
2021/09/19 11:30:20;;;;;;;;;;;15.80;99.90;;;;;;1845998;78;20183;-72
2021/09/19 11:32:47;;;;;;;;;;;15.80;99.90;;;;;;1846177;78;20415;-72
2021/09/19 11:35:14;;;;;;;;;;;15.80;99.90;;;;;;1845168;77;20190;-71
2021/09/19 11:37:41;;;;;;;;;;;15.80;99.90;;;;;;1845918;78;20189;-72
2021/09/19 11:40:12;;;;;;;;;;;15.80;99.90;;;;;;1842536;78;20286;-71
2021/09/19 11:42:38;;;;;;;;;;;15.80;99.90;;;;;;1840788;78;20789;-71
2021/09/19 11:45:09;;;;;;;;;;;15.80;99.90;;;;;;1849078;76;20479;-71
2021/09/19 11:47:37;;;;;;;;;;;15.80;99.90;;;;;;1845948;78;20178;-71
2021/09/19 11:50:06;;;;;;;;;;;15.90;99.90;;;;;;1845937;77;20212;-71
2021/09/19 11:52:33;;;;;;;;;;;15.90;99.90;;;;;;1846074;78;20126;-71
2021/09/19 11:54:59;;;;;;;;;;;15.90;99.90;;;;;;1845715;78;20244;-71
2021/09/19 11:57:26;;;;;;;;;;;15.90;99.90;;;;;;1840397;78;20438;-71
2021/09/19 11:59:53;;;;;;;;;;;15.90;99.90;;;;;;1839259;78;20200;-71
2021/09/19 12:02:20;;;;;;;;;;;15.90;99.90;;;;;;1839336;78;20263;-71
2021/09/19 12:04:48;;;;;;;;;;;15.90;99.90;;;;;;1839444;78;20131;-71
2021/09/19 12:07:16;;;;;;;;;;;15.90;99.90;;;;;;1842319;78;20161;-71
2021/09/19 12:09:52;;;;;;;;;;;15.80;99.90;;;;;;1845786;76;20158;-71
2021/09/19 12:12:20;;;;;;;;;;;15.80;99.90;;;;;;1845573;78;20443;-71
2021/09/19 12:14:51;;;;;;;;;;;15.80;99.90;;;;;;1844521;78;20217;-71
2021/09/19 12:17:28;;;;;;;;;;;15.90;99.90;;;;;;1842991;78;20186;-71
2021/09/19 12:19:59;;;;;;;;;;;15.80;99.90;;;;;;1840318;78;20376;-70
2021/09/19 12:22:26;;;;;;;;;;;15.90;99.90;;;;;;1841255;78;20127;-71
2021/09/19 12:24:55;;;;;;;;;;;15.90;99.90;;;;;;1837019;78;20163;-70
2021/09/19 12:27:23;;;;;;;;;;;16.00;99.90;;;;;;1837028;76;20225;-70
2021/09/19 12:30:01;;;;;;;;;;;16.00;99.90;;;;;;1837823;76;20112;-72
2021/09/19 12:32:38;;;;;;;;;;;16.00;99.90;;;;;;1837354;76;20154;-71
2021/09/19 12:35:07;;;;;;;;;;;16.00;99.90;;;;;;1819743;76;20473;-71
2021/09/19 12:37:34;;;;;;;;;;;16.10;99.90;;;;;;1816815;76;20168;-72
2021/09/19 12:40:06;;;;;;;;;;;16.00;99.90;;;;;;1840661;76;20165;-72
2021/09/19 12:42:33;;;;;;;;;;;16.10;99.90;;;;;;1835739;76;20482;-71
2021/09/19 12:45:00;;;;;;;;;;;16.00;99.90;;;;;;1815624;79;20422;-70
2021/09/19 12:47:30;;;;;;;;;;;16.00;99.90;;;;;;1827596;76;20201;-71
2021/09/19 12:49:59;;;;;;;;;;;16.00;99.90;;;;;;1844277;76;20541;-71
2021/09/19 12:52:32;;;;;;;;;;;16.00;99.90;;;;;;1839680;78;20187;-72
2021/09/19 12:54:59;;;;;;;;;;;16.00;99.90;;;;;;1834241;78;20242;-71
2021/09/19 12:57:27;;;;;;;;;;;15.90;99.90;;;;;;1843075;76;20111;-71
2021/09/19 12:59:54;;;;;;;;;;;16.00;99.90;;;;;;1843200;76;20180;-71
2021/09/19 13:02:21;;;;;;;;;;;16.00;99.90;;;;;;1844502;78;20239;-71
2021/09/19 13:04:49;;;;;;;;;;;16.10;99.90;;;;;;1846106;78;20156;-71
2021/09/19 13:07:16;;;;;;;;;;;16.20;99.90;;;;;;1844439;78;20158;-71
2021/09/19 13:09:44;;;;;;;;;;;16.40;99.90;;;;;;1815897;79;20484;-71
2021/09/19 13:12:11;;;;;;;;;;;16.40;99.90;;;;;;1820892;77;20130;-71
2021/09/19 13:14:38;;;;;;;;;;;16.40;99.90;;;;;;1823650;78;20212;-71
2021/09/19 13:17:06;;;;;;;;;;;16.50;99.90;;;;;;1835789;78;20180;-71
2021/09/19 13:19:32;;;;;;;;;;;16.50;99.90;;;;;;1839946;78;20149;-70
2021/09/19 13:21:59;;;;;;;;;;;16.50;99.90;;;;;;1843281;77;20196;-70
2021/09/19 13:24:26;;;;;;;;;;;16.40;99.90;;;;;;1841641;77;20281;-70
2021/09/19 13:26:54;;;;;;;;;;;16.40;99.90;;;;;;1838152;76;20134;-71
2021/09/19 13:29:22;;;;;;;;;;;16.30;99.90;;;;;;1842940;77;20497;-70
2021/09/19 13:31:49;;;;;;;;;;;16.20;99.90;;;;;;1833850;77;20460;-70
2021/09/19 13:34:16;;;;;;;;;;;16.20;99.90;;;;;;1845728;78;20893;-71
2021/09/19 13:36:43;;;;;;;;;;;16.10;99.90;;;;;;1847654;76;20127;-71
2021/09/19 13:39:11;;;;;;;;;;;16.10;99.90;;;;;;1833083;77;20207;-71
2021/09/19 13:41:39;;;;;;;;;;;16.10;99.90;;;;;;1815487;79;20453;-71
2021/09/19 13:44:05;;;;;;;;;;;16.00;99.90;;;;;;1822215;77;20135;-70
2021/09/19 13:46:32;;;;;;;;;;;16.10;99.90;;;;;;1848474;77;20170;-71
2021/09/19 13:49:02;;;;;;;;;;;16.10;99.90;;;;;;1844269;77;20127;-70
2021/09/19 13:51:28;;;;;;;;;;;16.10;99.90;;;;;;1832631;77;20155;-71
2021/09/19 13:53:54;;;;;;;;;;;16.10;99.90;;;;;;1835921;77;20182;-71
2021/09/19 13:56:21;;;;;;;;;;;16.10;99.90;;;;;;1841009;76;20247;-70
2021/09/19 13:58:48;;;;;;;;;;;16.20;99.90;;;;;;1844576;78;20104;-70
2021/09/19 14:01:15;;;;;;;;;;;16.20;99.90;;;;;;1843257;77;20559;-69
2021/09/19 14:03:42;;;;;;;;;;;16.40;99.90;;;;;;1821432;78;20109;-70
2021/09/19 14:06:08;;;;;;;;;;;16.50;99.90;;;;;;1834339;78;20472;-70
2021/09/19 14:08:35;;;;;;;;;;;16.60;99.90;;;;;;1849293;76;20199;-70
2021/09/19 14:11:02;;;;;;;;;;;16.80;99.90;;;;;;1845286;76;20253;-70
2021/09/19 14:13:29;;;;;;;;;;;16.90;99.90;;;;;;1844362;78;20447;-71
2021/09/19 14:15:56;;;;;;;;;;;16.80;99.90;;;;;;1839354;78;20149;-70
2021/09/19 14:18:22;;;;;;;;;;;16.70;99.90;;;;;;1826699;78;20676;-70
2021/09/19 14:20:49;;;;;;;;;;;16.60;99.90;;;;;;1844695;76;20184;-70